Time;durP1;ratioP1;P1;durP2;ratioP2;P2;SDS_P1;SDS_P2;PMS_P1;PMS_P2;Temp;Humidity;BMP_temperature;BMP_pressure;BME280_temperature;BME280_humidity;BME280_pressure;Samples;Min_cycle;Max_cycle;Signal;HPM_P1;HPM_P2
2022/11/28 00:27:50;;;;;;;;;7.25;7.25;;;;;10.39;70.88;100291.84;5633729;22;15230476;-79
2022/11/28 00:30:16;;;;;;;;;11.50;7.00;;;;;11.04;71.19;100384.72;6138972;23;46406;-79
2022/11/28 00:32:41;;;;;;;;;8.75;7.00;;;;;11.05;71.39;100383.78;6149892;23;45640;-78
2022/11/28 00:35:06;;;;;;;;;5.00;5.00;;;;;10.94;71.21;100368.88;6124764;23;45590;-78
2022/11/28 00:37:32;;;;;;;;;2.00;2.00;;;;;10.86;71.30;100353.72;6150884;23;46249;-80
2022/11/28 00:39:58;;;;;;;;;5.50;5.50;;;;;10.95;71.63;100354.84;6150381;23;46063;-80
2022/11/28 00:42:29;;;;;;;;;8.50;6.00;;;;;10.72;71.27;100330.38;6150403;23;45625;-77
2022/11/28 00:44:57;;;;;;;;;6.00;6.00;;;;;10.85;71.69;100346.81;6148325;23;45672;-79
2022/11/28 00:47:40;;;;;;;;;7.00;7.00;;;;;10.47;71.52;100276.38;6124411;23;47616;-79
2022/11/28 00:50:06;;;;;;;;;6.00;5.50;;;;;10.85;71.68;100336.34;6150900;23;47132;-80
2022/11/28 00:52:32;;;;;;;;;7.50;6.25;;;;;11.05;71.60;100376.75;6149539;23;45656;-80
2022/11/28 00:54:57;;;;;;;;;4.00;4.00;;;;;11.01;71.66;100366.63;6123116;23;45935;-77
2022/11/28 00:57:28;;;;;;;;;7.00;6.25;;;;;11.07;71.52;100368.75;6150901;23;46541;-79
2022/11/28 01:00:05;;;;;;;;;6.25;6.25;;;;;10.90;71.49;100338.63;6220551;22;46156;-78
2022/11/28 01:02:30;;;;;;;;;8.00;7.00;;;;;10.88;71.56;100343.97;6273650;22;46403;-80
2022/11/28 01:08:12;;;;;;;;;6.25;6.25;;;;;10.67;71.59;100285.34;6120461;23;47311;-80
2022/11/28 01:10:46;;;;;;;;;4.00;3.75;;;;;11.04;71.55;100346.25;6120078;23;45729;-80
2022/11/28 01:13:11;;;;;;;;;7.00;6.00;;;;;11.05;71.68;100341.84;6120429;23;45799;-81
2022/11/28 01:15:40;;;;;;;;;6.00;4.50;;;;;11.15;71.44;100367.22;6120591;23;45614;-80
2022/11/28 01:18:05;;;;;;;;;7.00;7.00;;;;;11.12;71.44;100356.16;6120769;23;47221;-80
2022/11/28 01:20:31;;;;;;;;;8.00;7.00;;;;;11.04;71.71;100353.28;6120625;23;46227;-78
2022/11/28 01:22:56;;;;;;;;;6.50;6.50;;;;;11.14;71.60;100368.19;6119744;23;45674;-80
2022/11/28 01:25:25;;;;;;;;;6.50;6.00;;;;;11.07;71.72;100350.41;6111628;23;45543;-79
2022/11/28 01:27:50;;;;;;;;;7.50;6.00;;;;;11.22;71.67;100367.59;6114226;23;45608;-79
2022/11/28 01:30:15;;;;;;;;;5.25;5.25;;;;;11.20;71.52;100367.72;6113122;23;46197;-79
2022/11/28 01:35:54;;;;;;;;;6.50;6.00;;;;;11.05;71.44;100342.69;6054655;23;45893;-77
2022/11/28 01:45:50;;;;;;;;;9.00;8.75;;;;;11.36;71.39;100391.78;5036019;27;45655;-79
2022/11/28 01:48:33;;;;;;;;;5.50;5.00;;;;;11.36;71.69;100389.16;5007645;28;46265;-78
2022/11/28 01:51:01;;;;;;;;;8.00;8.00;;;;;11.33;71.45;100394.66;5021079;28;45737;-78
2022/11/28 01:53:30;;;;;;;;;6.75;6.50;;;;;11.38;71.41;100396.94;5023184;28;46631;-79
2022/11/28 01:56:00;;;;;;;;;8.00;7.00;;;;;11.41;71.75;100396.66;5011415;28;46179;-79
2022/11/28 01:58:31;;;;;;;;;6.75;6.25;;;;;11.44;71.73;100406.09;5023162;28;45738;-77
2022/11/28 02:01:00;;;;;;;;;10.25;8.00;;;;;11.38;71.58;100391.69;5004810;27;45947;-78
2022/11/28 02:03:32;;;;;;;;;6.00;6.00;;;;;11.25;71.70;100367.34;5018849;28;46173;-78
2022/11/28 02:06:12;;;;;;;;;8.50;7.00;;;;;11.34;71.65;100382.34;5017405;28;47277;-80
2022/11/28 02:08:44;;;;;;;;;9.50;7.00;;;;;11.48;71.65;100404.91;5022946;28;46049;-80
2022/11/28 02:11:34;;;;;;;;;11.50;8.75;;;;;11.48;71.72;100404.91;5024019;28;45595;-79
2022/11/28 02:14:36;;;;;;;;;7.75;7.00;;;;;11.38;71.79;100377.72;5023079;28;46476;-77
2022/11/28 02:17:27;;;;;;;;;8.25;7.00;;;;;11.48;71.80;100395.25;5019697;28;46739;-78
2022/11/28 02:20:07;;;;;;;;;7.00;7.00;;;;;11.47;71.82;100393.56;5024797;28;45756;-79
2022/11/28 02:23:10;;;;;;;;;9.00;8.00;;;;;11.47;71.80;100390.94;5025663;28;46044;-78
2022/11/28 02:25:41;;;;;;;;;6.50;6.25;;;;;11.48;71.75;100390.00;5023481;28;45793;-77
2022/11/28 02:28:25;;;;;;;;;8.50;7.25;;;;;11.50;71.71;100385.44;5007663;28;47721;-79
2022/11/28 02:31:22;;;;;;;;;8.50;6.75;;;;;11.45;71.92;100369.25;5019709;28;45789;-80
2022/11/28 02:33:54;;;;;;;;;9.00;7.50;;;;;11.51;71.78;100379.25;4942346;28;45753;-80
2022/11/28 02:36:19;;;;;;;;;7.50;7.25;;;;;11.51;71.82;100378.41;4942894;28;46515;-79
2022/11/28 02:39:05;;;;;;;;;6.75;6.25;;;;;11.52;71.86;100380.09;4945310;28;45922;-78
2022/11/28 02:41:31;;;;;;;;;8.00;8.00;;;;;11.53;71.88;100381.75;4944849;28;46185;-79
2022/11/28 02:44:13;;;;;;;;;7.50;7.25;;;;;11.53;72.08;100382.59;4944969;28;45899;-77
2022/11/28 02:47:09;;;;;;;;;8.00;7.25;;;;;11.55;71.77;100380.69;4943439;28;46611;-79
2022/11/28 02:49:42;;;;;;;;;8.00;8.00;;;;;11.55;71.70;100372.00;4945366;28;46089;-79
2022/11/28 02:52:23;;;;;;;;;14.75;11.00;;;;;11.52;71.66;100356.47;4946052;28;46069;-77
2022/11/28 02:55:37;;;;;;;;;10.75;9.50;;;;;11.60;71.70;100354.94;4942319;28;46474;-79
2022/11/28 02:58:29;;;;;;;;;9.25;7.00;;;;;11.63;71.49;100340.72;4908131;28;48730;-79
2022/11/28 03:01:12;;;;;;;;;;;;;;;;;;;;;
2022/11/28 03:04:46;;;;;;;;;;;;;;;;;;;;;
2022/11/28 03:14:16;;;;;;;;;9.00;9.00;;;;;11.71;71.48;100339.13;4854639;29;46119;-78
2022/11/28 03:16:59;;;;;;;;;10.50;9.50;;;;;11.72;71.47;100342.59;4853660;29;46120;-79
2022/11/28 03:19:30;;;;;;;;;7.50;7.00;;;;;11.68;71.53;100336.78;4855778;29;45945;-79
2022/11/28 03:22:20;;;;;;;;;11.75;9.00;;;;;11.73;71.20;100339.91;4855538;29;45936;-77
2022/11/28 03:24:53;;;;;;;;;8.00;8.00;;;;;11.75;71.21;100353.75;4854174;29;46201;-79
2022/11/28 03:27:30;;;;;;;;;9.50;8.50;;;;;11.75;71.63;100343.25;4855734;29;45663;-79
2022/11/28 03:30:02;;;;;;;;;9.50;9.00;;;;;11.72;71.31;100338.19;4855922;29;45822;-77
2022/11/28 03:32:36;;;;;;;;;8.00;8.00;;;;;11.61;71.21;100326.88;4856004;29;45975;-79
2022/11/28 03:35:19;;;;;;;;;9.00;8.00;;;;;11.63;71.23;100333.69;4844486;29;46154;-79
2022/11/28 03:38:31;;;;;;;;;9.75;9.00;;;;;11.41;71.41;100301.41;4833972;29;46827;-78
2022/11/28 03:42:11;;;;;;;;;;;;;;;;;;;;;
2022/11/28 03:45:04;;;;;;;;;13.50;10.25;;;;;11.61;71.54;100342.63;4900126;28;76989;-78
2022/11/28 03:47:36;;;;;;;;;10.25;9.00;;;;;11.78;71.41;100363.16;4939500;28;46208;-75
2022/11/28 03:50:12;;;;;;;;;10.25;10.25;;;;;11.71;71.68;100348.84;4995040;28;45832;-78
2022/11/28 03:52:45;;;;;;;;;10.00;9.00;;;;;11.74;71.56;100341.56;5061139;28;46308;-78
2022/11/28 03:55:26;;;;;;;;;12.50;10.00;;;;;11.75;71.43;100340.63;5068597;28;46083;-79
2022/11/28 03:58:18;;;;;;;;;10.00;10.00;;;;;11.75;71.72;100339.78;5068975;28;46202;-77
2022/11/28 04:01:17;;;;;;;;;15.00;12.50;;;;;11.74;71.49;100327.59;5034817;28;46103;-78
2022/11/28 04:04:09;;;;;;;;;8.25;7.50;;;;;11.77;71.63;100338.69;5032219;28;45922;-77
2022/11/28 04:10:26;;;;;;;;;10.50;9.00;;;;;11.52;71.46;100296.97;4999486;28;46566;-79
2022/11/28 04:12:55;;;;;;;;;9.75;9.75;;;;;11.81;71.44;100354.22;5005691;28;45754;-80
2022/11/28 04:15:47;;;;;;;;;12.00;9.25;;;;;11.77;71.47;100346.56;5005385;28;46970;-78
2022/11/28 04:18:40;;;;;;;;;10.50;9.00;;;;;11.42;71.39;100290.81;4972996;28;47486;-79
2022/11/28 04:21:17;;;;;;;;;14.00;9.50;;;;;11.80;71.61;100344.66;4948741;28;46173;-79
2022/11/28 04:23:45;;;;;;;;;9.25;9.00;;;;;11.78;71.55;100340.34;4930044;28;46181;-80
2022/11/28 04:27:00;;;;;;;;;;;;;;;;;;;;;
2022/11/28 04:36:25;;;;;;;;;9.00;8.50;;;;;11.81;71.58;100348.97;4838502;29;45821;-78
2022/11/28 04:38:56;;;;;;;;;9.25;8.25;;;;;11.71;71.46;100330.47;4844807;29;45874;-79
2022/11/28 04:41:31;;;;;;;;;7.25;6.50;;;;;11.73;71.56;100332.03;4837745;29;45765;-78
2022/11/28 04:44:11;;;;;;;;;11.25;9.00;;;;;11.76;71.67;100344.91;4845430;29;46477;-79
2022/11/28 04:46:42;;;;;;;;;13.75;9.75;;;;;11.73;71.88;100337.28;4831395;29;45736;-80
2022/11/28 04:49:08;;;;;;;;;8.75;8.00;;;;;11.81;72.05;100362.91;4834881;29;45861;-79
2022/11/28 04:51:55;;;;;;;;;11.00;10.00;;;;;11.79;72.03;100375.31;4836806;29;47127;-79
2022/11/28 04:55:31;;;;;;;;;10.25;8.75;;;;;11.78;71.96;100371.03;4835080;29;46817;-76
2022/11/28 04:58:08;;;;;;;;;12.00;9.00;;;;;11.20;71.96;100272.47;4842345;29;45959;-78
2022/11/28 05:00:38;;;;;;;;;10.50;9.25;;;;;11.70;71.96;100334.88;4855197;29;45866;-80
2022/11/28 05:03:59;;;;;;;;;10.25;9.50;;;;;11.45;71.96;100285.28;4898769;28;46149;-80
2022/11/28 05:06:37;;;;;;;;;10.25;9.50;;;;;11.76;71.89;100329.16;4835535;29;46410;-79
2022/11/28 05:13:31;;;;;;;;;;;;;;;;;;;;;
2022/11/28 05:19:20;;;;;;;;;10.25;9.00;;;;;11.70;71.98;100341.91;4826663;29;46301;-77
2022/11/28 05:21:46;;;;;;;;;10.00;9.50;;;;;11.57;72.32;100322.84;4834177;29;45775;-78
2022/11/28 05:24:11;;;;;;;;;11.00;9.00;;;;;11.76;72.18;100354.56;4834738;29;45600;-77
2022/11/28 05:26:37;;;;;;;;;12.50;11.25;;;;;11.70;72.37;100337.50;4835607;29;46615;-78
2022/11/28 05:29:53;;;;;;;;;;;;;;;;;;;;;
2022/11/28 05:33:20;;;;;;;;;;;;;;;;;;;;;
2022/11/28 05:35:46;;;;;;;;;8.75;8.75;;;;;11.56;72.25;100310.69;4804060;29;69347;-79
2022/11/28 05:38:11;;;;;;;;;9.25;8.75;;;;;11.63;72.68;100325.81;4799455;29;46495;-79
2022/11/28 05:40:43;;;;;;;;;10.75;9.00;;;;;11.67;72.62;100331.66;4805290;29;46856;-79
2022/11/28 05:43:12;;;;;;;;;12.50;9.00;;;;;11.65;72.92;100336.19;4835729;29;46107;-79
2022/11/28 05:46:01;;;;;;;;;10.50;10.50;;;;;11.62;72.56;100337.25;4855452;29;45806;-78
2022/11/28 05:49:20;;;;;;;;;11.50;9.50;;;;;11.66;72.91;100351.00;4851831;29;45819;-78
2022/11/28 05:51:48;;;;;;;;;12.50;9.75;;;;;11.36;72.57;100296.53;4871139;28;46104;-77
2022/11/28 05:54:13;;;;;;;;;9.50;9.00;;;;;11.55;72.70;100320.34;4899891;28;45843;-78
2022/11/28 05:56:39;;;;;;;;;9.00;9.00;;;;;11.45;72.79;100316.78;4911587;28;46093;-77
2022/11/28 05:59:04;;;;;;;;;11.00;8.50;;;;;11.65;72.63;100351.94;4909012;28;46294;-76
2022/11/28 06:01:29;;;;;;;;;9.50;9.00;;;;;11.65;72.90;100351.94;4910334;28;45747;-80
2022/11/28 06:03:59;;;;;;;;;10.00;9.00;;;;;11.63;72.69;100343.34;4906375;28;45727;-80
2022/11/28 06:06:27;;;;;;;;;9.00;8.00;;;;;11.66;72.73;100351.00;4909599;28;45840;-76
2022/11/28 06:08:53;;;;;;;;;9.00;8.75;;;;;11.61;72.65;100348.72;4906263;28;47229;-78
2022/11/28 06:11:21;;;;;;;;;3.75;2.75;;;;;11.66;72.88;100362.28;4910726;28;47649;-79
2022/11/28 06:13:47;;;;;;;;;9.50;8.00;;;;;11.67;72.74;100357.88;5025613;28;45891;-79
2022/11/28 06:16:16;;;;;;;;;11.00;8.25;;;;;11.66;72.96;100361.50;5024371;28;45828;-79
2022/11/28 06:18:42;;;;;;;;;9.00;8.00;;;;;11.64;72.93;100366.84;5023441;28;47576;-78
2022/11/28 06:21:09;;;;;;;;;10.50;9.00;;;;;11.65;72.64;100372.94;5025440;28;45828;-80
2022/11/28 06:23:34;;;;;;;;;8.75;7.00;;;;;11.64;72.59;100366.84;5025435;28;45721;-79
2022/11/28 06:36:26;;;;;;;;;9.75;8.75;;;;;11.49;72.52;100333.97;4874544;29;45758;-80
2022/11/28 06:38:52;;;;;;;;;10.25;9.00;;;;;11.18;72.68;100272.59;4876223;29;45960;-77
2022/11/28 06:41:19;;;;;;;;;13.00;10.50;;;;;11.73;72.65;100378.44;4872151;29;46593;-76
2022/11/28 06:43:45;;;;;;;;;8.25;8.00;;;;;11.72;72.77;100382.81;4871885;29;47493;-78
2022/11/28 06:46:46;;;;;;;;;8.75;8.00;;;;;11.73;72.92;100391.53;4872600;29;45779;-78
2022/11/28 06:49:14;;;;;;;;;11.00;10.00;;;;;11.73;72.90;100396.78;4817062;29;45914;-79
2022/11/28 06:51:41;;;;;;;;;8.25;8.00;;;;;11.73;72.90;100397.63;4818944;29;46755;-78
2022/11/28 06:54:07;;;;;;;;;9.75;9.25;;;;;11.69;72.79;100398.81;4818069;29;46381;-77
2022/11/28 06:56:33;;;;;;;;;10.00;10.00;;;;;11.74;72.83;100401.09;4816531;29;46385;-78
2022/11/28 06:58:59;;;;;;;;;10.50;8.75;;;;;11.75;72.71;100394.91;4810178;29;46040;-75
2022/11/28 07:01:27;;;;;;;;;9.00;8.25;;;;;11.73;72.87;100395.00;4814282;29;46134;-77
2022/11/28 07:03:56;;;;;;;;;12.00;8.75;;;;;11.68;72.90;100388.41;4818911;29;46207;-77
2022/11/28 07:06:23;;;;;;;;;8.75;7.00;;;;;11.69;72.75;100393.56;4819546;29;45815;-77
2022/11/28 07:08:50;;;;;;;;;11.25;10.00;;;;;11.69;72.98;100404.06;4839252;29;45693;-78
2022/11/28 07:11:21;;;;;;;;;9.00;8.50;;;;;11.63;72.83;100412.41;4856860;29;46447;-76
2022/11/28 07:13:48;;;;;;;;;10.25;7.00;;;;;11.49;72.86;100391.69;4908614;28;47091;-77
2022/11/28 07:16:17;;;;;;;;;10.75;9.50;;;;;11.54;73.15;100397.41;4910109;28;46102;-78
2022/11/28 07:18:43;;;;;;;;;11.75;8.00;;;;;11.42;72.98;100393.09;4906663;28;46135;-75
2022/11/28 07:21:09;;;;;;;;;13.00;9.75;;;;;11.43;73.03;100394.78;4901959;28;45719;-76
2022/11/28 07:23:34;;;;;;;;;8.25;7.50;;;;;11.41;73.06;100401.09;4974045;28;45657;-75
2022/11/28 07:26:01;;;;;;;;;7.00;6.00;;;;;11.37;73.15;100400.50;5012966;27;45740;-75
2022/11/28 07:28:28;;;;;;;;;8.75;8.00;;;;;11.35;73.17;100397.16;5007508;28;45755;-76
2022/11/28 07:31:14;;;;;;;;;8.00;6.75;;;;;11.32;73.22;100395.59;5010454;27;47678;-75
2022/11/28 07:33:42;;;;;;;;;10.00;8.25;;;;;11.38;73.23;100410.03;4997987;28;46227;-75
2022/11/28 07:36:11;;;;;;;;;9.00;8.75;;;;;11.32;73.25;100406.09;5009425;28;45861;-76
2022/11/28 07:38:37;;;;;;;;;11.25;8.25;;;;;11.36;73.39;100414.56;5010974;27;45997;-73
2022/11/28 07:41:03;;;;;;;;;8.75;7.00;;;;;11.35;73.34;100421.59;5008177;28;46558;-75
2022/11/28 07:43:29;;;;;;;;;11.50;8.25;;;;;11.34;73.40;100409.41;5003509;27;46279;-74
2022/11/28 07:45:54;;;;;;;;;7.00;6.00;;;;;11.35;73.44;100412.88;5003337;28;45812;-75
2022/11/28 07:48:19;;;;;;;;;8.00;7.50;;;;;11.27;73.41;100408.25;5009755;28;45597;-74
2022/11/28 07:50:45;;;;;;;;;10.75;8.25;;;;;11.26;73.27;100403.13;5009282;28;45651;-75
2022/11/28 07:53:10;;;;;;;;;11.00;8.75;;;;;11.32;73.40;100415.75;5006548;28;45766;-76
2022/11/28 07:55:35;;;;;;;;;7.50;6.00;;;;;11.31;73.49;100422.78;4994769;27;45670;-76
2022/11/28 07:58:02;;;;;;;;;6.75;6.50;;;;;11.29;73.04;100419.44;5009568;28;45597;-75
2022/11/28 08:00:28;;;;;;;;;11.50;7.75;;;;;11.28;73.27;100422.19;5009038;28;47719;-75
2022/11/28 08:02:53;;;;;;;;;8.50;7.25;;;;;11.31;73.02;100425.41;5003723;28;46101;-75
2022/11/28 08:05:18;;;;;;;;;7.50;7.00;;;;;11.34;73.23;100425.16;5008375;28;45547;-74
2022/11/28 08:07:44;;;;;;;;;13.25;9.75;;;;;11.38;73.02;100432.81;5009795;28;45752;-76
2022/11/28 08:10:09;;;;;;;;;9.00;7.75;;;;;11.41;73.08;100435.19;4999667;28;47446;-76
2022/11/28 08:12:34;;;;;;;;;8.00;6.25;;;;;11.39;72.81;100429.25;5009022;28;45940;-75
2022/11/28 08:15:00;;;;;;;;;7.25;7.00;;;;;11.42;72.76;100429.00;5008394;27;45710;-76
2022/11/28 08:17:25;;;;;;;;;7.50;6.00;;;;;11.45;72.90;100428.72;5009232;28;45709;-75
2022/11/28 08:19:51;;;;;;;;;9.50;7.25;;;;;11.46;72.67;100436.50;4999722;27;45827;-75
2022/11/28 08:22:16;;;;;;;;;8.00;7.00;;;;;11.50;72.92;100440.53;5008926;28;46916;-75
2022/11/28 08:24:41;;;;;;;;;9.75;8.50;;;;;11.54;72.72;100449.03;5008078;28;45686;-75
2022/11/28 08:27:07;;;;;;;;;8.00;7.00;;;;;11.52;72.62;100440.44;5009424;28;45732;-74
2022/11/28 08:29:33;;;;;;;;;6.50;6.50;;;;;11.56;72.45;100449.72;5009206;28;46102;-75
2022/11/28 08:31:58;;;;;;;;;9.00;7.00;;;;;11.53;72.54;100442.09;5009097;28;46946;-76
2022/11/28 08:34:23;;;;;;;;;7.25;6.00;;;;;11.63;72.52;100457.00;5007650;28;45644;-76
2022/11/28 08:36:49;;;;;;;;;7.00;5.25;;;;;11.64;72.46;100442.94;5007442;28;45809;-76
2022/11/28 08:39:14;;;;;;;;;8.25;7.00;;;;;11.66;72.25;100437.59;5009253;28;45703;-76
2022/11/28 08:51:50;;;;;;;;;6.75;6.00;;;;;11.72;71.72;100437.91;4781523;29;45701;-76
2022/11/28 09:04:13;;;;;;;;;9.00;6.75;;;;;11.72;72.03;100435.28;5106739;27;46120;-76
2022/11/28 09:06:39;;;;;;;;;7.25;5.50;;;;;11.72;71.76;100432.66;5086763;27;45808;-75
2022/11/28 09:09:05;;;;;;;;;8.75;6.75;;;;;11.76;71.69;100426.28;5087975;27;45890;-77
2022/11/28 09:11:30;;;;;;;;;6.25;4.50;;;;;11.77;71.52;100438.41;5086372;27;48014;-76
2022/11/28 09:17:03;;;;;;;;;7.00;5.25;;;;;11.65;71.57;100433.28;5024606;28;46650;-77
2022/11/28 09:19:37;;;;;;;;;8.00;6.75;;;;;11.42;71.62;100387.03;5023949;28;46421;-76
2022/11/28 09:22:02;;;;;;;;;6.75;6.00;;;;;11.69;71.71;100426.84;5024339;28;45719;-75
2022/11/28 09:24:28;;;;;;;;;6.50;5.25;;;;;11.73;71.48;100442.25;5020004;28;45833;-76
2022/11/28 09:26:56;;;;;;;;;7.75;6.00;;;;;11.69;71.52;100440.78;5024432;28;46169;-76
2022/11/28 09:29:22;;;;;;;;;8.25;7.25;;;;;11.74;71.44;100445.72;5024794;28;45768;-75
2022/11/28 09:31:47;;;;;;;;;7.75;6.25;;;;;11.72;71.32;100452.81;5024321;28;47272;-77
2022/11/28 09:34:16;;;;;;;;;8.50;5.25;;;;;11.72;71.41;100455.44;5006906;28;45778;-74
2022/11/28 09:36:41;;;;;;;;;7.00;6.50;;;;;11.62;71.67;100441.38;5024177;28;45738;-76
2022/11/28 09:39:07;;;;;;;;;6.00;6.00;;;;;11.66;71.59;100462.00;5008398;28;45851;-76
2022/11/28 09:41:57;;;;;;;;;9.00;6.25;;;;;11.63;71.39;100445.69;5024579;28;46608;-76
2022/11/28 09:44:44;;;;;;;;;6.00;6.00;;;;;11.61;71.69;100451.03;5023445;28;46117;-76
2022/11/28 09:47:27;;;;;;;;;8.75;6.00;;;;;11.58;71.53;100456.53;5024724;28;45847;-76
2022/11/28 09:50:14;;;;;;;;;6.00;4.75;;;;;11.60;71.50;100457.28;5024280;28;45922;-77
2022/11/28 09:52:58;;;;;;;;;6.50;4.75;;;;;11.62;71.46;100455.34;5023026;28;45824;-78
2022/11/28 09:55:48;;;;;;;;;6.75;4.00;;;;;11.65;71.58;100463.00;5081759;27;46274;-76
2022/11/28 09:58:30;;;;;;;;;5.75;4.00;;;;;11.67;71.33;100454.97;5087011;27;45637;-76
2022/11/28 10:01:37;;;;;;;;;6.00;6.00;;;;;11.69;71.28;100455.72;5086153;27;46997;-77
2022/11/28 10:04:08;;;;;;;;;6.00;4.00;;;;;11.69;71.30;100460.94;5022183;28;46314;-76
2022/11/28 10:06:52;;;;;;;;;6.00;5.50;;;;;11.68;71.19;100459.28;5023206;28;46682;-74
2022/11/28 10:09:44;;;;;;;;;6.00;4.00;;;;;11.67;71.28;100455.81;5021886;28;45758;-74
2022/11/28 10:13:09;;;;;;;;;;;;;;;;;;;;;
2022/11/28 10:16:24;;;;;;;;;6.25;4.25;;;;;11.68;71.22;100454.88;4919954;28;75514;-76
2022/11/28 10:18:55;;;;;;;;;7.25;4.00;;;;;11.39;71.13;100403.00;4970661;28;46775;-75
2022/11/28 10:21:46;;;;;;;;;5.75;3.75;;;;;11.68;71.18;100462.75;4954437;28;45834;-76
2022/11/28 10:24:34;;;;;;;;;6.00;4.50;;;;;11.69;71.26;100476.69;4911858;28;46038;-77
2022/11/28 10:27:03;;;;;;;;;7.00;3.00;;;;;11.66;71.03;100464.63;4912302;28;46420;-76
2022/11/28 10:29:40;;;;;;;;;5.00;4.00;;;;;11.68;71.13;100473.25;4912663;28;46147;-75
2022/11/28 10:32:17;;;;;;;;;5.50;4.00;;;;;11.70;71.08;100471.34;4896872;28;45753;-77
2022/11/28 10:34:58;;;;;;;;;6.50;5.00;;;;;11.74;71.08;100467.53;4911686;28;45802;-77
2022/11/28 10:38:26;;;;;;;;;;;;;;;;;;;;;
2022/11/28 10:41:20;;;;;;;;;2.00;2.00;;;;;11.81;70.91;100456.56;4824151;29;73208;-76
2022/11/28 10:43:53;;;;;;;;;2.75;2.00;;;;;11.74;70.69;100446.56;4818239;29;45884;-77
2022/11/28 10:46:28;;;;;;;;;3.75;3.00;;;;;11.81;70.64;100454.78;4819366;29;45939;-75
2022/11/28 10:48:54;;;;;;;;;3.75;2.00;;;;;11.83;70.81;100450.22;4819027;29;46400;-74
2022/11/28 10:52:03;;;;;;;;;2.00;2.00;;;;;11.86;70.69;100447.38;4862586;28;46212;-74
2022/11/28 10:54:44;;;;;;;;;4.50;2.25;;;;;11.82;70.54;100442.50;4892755;28;45795;-76
2022/11/28 10:57:46;;;;;;;;;4.00;3.00;;;;;11.89;70.42;100455.00;4889183;28;45875;-77
2022/11/28 11:00:17;;;;;;;;;3.00;2.00;;;;;11.84;70.14;100444.03;4897567;28;47176;-76
2022/11/28 11:02:48;;;;;;;;;3.00;2.75;;;;;11.93;70.33;100453.00;4963669;28;45808;-76
2022/11/28 11:05:20;;;;;;;;;5.25;3.75;;;;;11.92;70.13;100446.91;4948851;28;45885;-76
2022/11/28 11:07:56;;;;;;;;;2.00;2.00;;;;;11.99;70.20;100449.84;4960248;28;45734;-75
2022/11/28 11:10:41;;;;;;;;;3.50;3.00;;;;;12.02;70.30;100449.63;4970237;28;47008;-75
2022/11/28 11:13:25;;;;;;;;;7.50;5.25;;;;;12.09;70.15;100448.19;4955876;28;46015;-75
2022/11/28 11:15:58;;;;;;;;;7.75;4.75;;;;;12.05;69.59;100444.09;4956399;28;45717;-77
2022/11/28 11:18:30;;;;;;;;;6.25;3.00;;;;;11.98;69.67;100437.69;5030019;28;45765;-76
2022/11/28 11:21:16;;;;;;;;;9.75;8.50;;;;;12.21;69.53;100478.69;5051365;28;46370;-76
2022/11/28 11:23:43;;;;;;;;;2.00;1.50;;;;;12.20;69.24;100469.13;5050868;28;46758;-76
2022/11/28 11:26:19;;;;;;;;;7.50;6.50;;;;;12.23;69.58;100476.78;5045780;28;45887;-76
2022/11/28 11:28:51;;;;;;;;;4.75;3.00;;;;;12.25;68.84;100474.88;5046545;28;45698;-74
2022/11/28 11:31:29;;;;;;;;;2.00;2.00;;;;;12.29;68.95;100459.72;5051981;28;46240;-76
2022/11/28 11:34:11;;;;;;;;;2.00;2.00;;;;;12.34;68.67;100463.63;5050347;28;45833;-76
2022/11/28 11:36:37;;;;;;;;;3.00;2.00;;;;;12.34;68.65;100442.63;5051545;28;45703;-77
2022/11/28 11:39:11;;;;;;;;;5.25;2.50;;;;;12.43;68.78;100446.28;5051606;28;45701;-76
2022/11/28 11:41:46;;;;;;;;;2.00;1.00;;;;;12.46;68.27;100440.78;5052212;28;47734;-77
2022/11/28 11:44:14;;;;;;;;;3.25;3.00;;;;;12.48;68.23;100436.22;5059873;28;48487;-77
2022/11/28 11:46:53;;;;;;;;;5.25;4.25;;;;;12.49;68.08;100444.00;5052458;28;46758;-76
2022/11/28 11:49:40;;;;;;;;;3.25;2.25;;;;;12.55;68.44;100438.25;5052995;28;46108;-77
2022/11/28 11:52:14;;;;;;;;;3.00;2.00;;;;;12.57;67.96;100438.13;5051743;28;46436;-75
2022/11/28 11:54:45;;;;;;;;;4.00;2.00;;;;;12.58;67.77;100434.50;5050574;28;46067;-75
2022/11/28 11:57:12;;;;;;;;;3.25;3.00;;;;;12.57;67.90;100436.34;5050041;28;45756;-78
2022/11/28 11:59:46;;;;;;;;;2.25;2.00;;;;;12.59;67.93;100438.81;5051041;28;45686;-76
2022/11/28 12:02:36;;;;;;;;;3.25;3.00;;;;;12.58;67.59;100426.63;5056276;28;47421;-77
2022/11/28 12:05:30;;;;;;;;;4.75;2.00;;;;;12.62;67.75;100422.81;5050106;28;46184;-77
2022/11/28 12:11:45;;;;;;;;;3.75;3.00;;;;;12.55;67.13;100393.56;5008626;28;46142;-75
2022/11/28 12:14:26;;;;;;;;;3.75;2.50;;;;;12.71;67.14;100415.94;5007380;28;45796;-76
2022/11/28 12:17:06;;;;;;;;;3.25;3.00;;;;;12.77;67.08;100407.56;5008030;28;46271;-76
2022/11/28 12:19:54;;;;;;;;;2.75;2.50;;;;;12.82;66.98;100418.50;5007997;28;45801;-76
2022/11/28 12:26:08;;;;;;;;;4.50;3.00;;;;;12.82;66.23;100408.00;4919247;28;46465;-76
2022/11/28 12:28:48;;;;;;;;;3.00;3.00;;;;;12.83;66.77;100405.25;4949532;28;47218;-78
2022/11/28 12:31:32;;;;;;;;;2.25;1.50;;;;;12.85;66.58;100403.31;5008472;28;45999;-76
2022/11/28 12:34:06;;;;;;;;;2.00;1.50;;;;;12.89;66.28;100396.00;5007050;28;45766;-77
2022/11/28 12:36:39;;;;;;;;;2.00;2.00;;;;;12.92;66.36;100401.00;5007783;28;46307;-77
2022/11/28 12:39:24;;;;;;;;;2.75;2.50;;;;;12.97;66.52;100396.19;5008083;28;46165;-76
2022/11/28 12:42:11;;;;;;;;;2.00;2.00;;;;;13.01;65.91;100394.97;5008327;28;45941;-77
2022/11/28 12:45:09;;;;;;;;;2.75;1.00;;;;;13.04;66.55;100399.97;5008342;28;45943;-77
2022/11/28 12:47:50;;;;;;;;;3.00;1.00;;;;;13.02;65.70;100386.94;5007752;28;45736;-76
2022/11/28 12:50:36;;;;;;;;;0.00;0.00;;;;;13.07;66.18;100389.19;5050584;28;46623;-75
2022/11/28 12:53:05;;;;;;;;;1.50;1.50;;;;;13.11;66.05;100393.25;5049293;28;46074;-77
2022/11/28 12:55:52;;;;;;;;;4.00;2.25;;;;;13.13;65.75;100395.75;5049353;28;45774;-78
2022/11/28 12:58:27;;;;;;;;;3.50;1.50;;;;;13.03;65.43;100379.88;5037774;28;46669;-77
2022/11/28 13:01:37;;;;;;;;;3.00;2.00;;;;;13.14;65.39;100385.09;5050815;28;46684;-76
2022/11/28 13:04:02;;;;;;;;;2.00;2.00;;;;;13.15;65.64;100383.31;5060289;28;45999;-76
2022/11/28 13:06:43;;;;;;;;;2.25;1.75;;;;;13.18;65.79;100385.66;5070226;28;46250;-78
2022/11/28 13:09:58;;;;;;;;;3.00;2.00;;;;;13.21;65.65;100398.56;5058612;27;46433;-76
2022/11/28 13:12:48;;;;;;;;;2.00;2.00;;;;;13.26;65.59;100393.75;5016341;28;46075;-78
2022/11/28 13:15:36;;;;;;;;;3.00;2.00;;;;;13.28;65.59;100394.47;5027551;28;45784;-77
2022/11/28 13:18:24;;;;;;;;;2.25;2.00;;;;;13.31;65.26;100388.94;5027828;28;45713;-77
2022/11/28 13:21:14;;;;;;;;;3.00;2.00;;;;;13.35;65.17;100398.22;5027741;28;46557;-76
2022/11/28 13:23:42;;;;;;;;;3.00;2.00;;;;;13.36;65.39;100395.47;5026505;28;46098;-77
2022/11/28 13:26:36;;;;;;;;;2.00;1.00;;;;;13.36;65.05;100400.72;5027442;28;45785;-77
2022/11/28 13:29:08;;;;;;;;;2.75;2.00;;;;;13.37;65.35;100402.41;5027871;28;45928;-76
2022/11/28 13:31:45;;;;;;;;;3.00;3.00;;;;;13.35;65.13;100392.94;5027415;28;45990;-77
2022/11/28 13:34:18;;;;;;;;;2.25;1.50;;;;;13.41;64.93;100409.06;5026103;28;47240;-77
2022/11/28 13:36:48;;;;;;;;;1.50;1.00;;;;;13.47;65.22;100412.13;5027237;28;46063;-77
2022/11/28 13:39:18;;;;;;;;;2.75;2.00;;;;;13.50;64.75;100404.78;5027551;28;45842;-77
2022/11/28 13:42:04;;;;;;;;;3.00;1.25;;;;;13.53;64.78;100409.81;5027035;28;45820;-78
2022/11/28 13:44:42;;;;;;;;;2.75;2.00;;;;;13.54;64.68;100413.28;5027185;28;45767;-77
2022/11/28 13:47:27;;;;;;;;;1.25;1.00;;;;;13.55;64.55;100417.56;5027570;28;46247;-77
2022/11/28 13:50:44;;;;;;;;;4.25;2.00;;;;;13.53;64.37;100415.06;5072480;28;45687;-77
2022/11/28 13:53:29;;;;;;;;;2.25;1.75;;;;;13.52;64.38;100417.81;5005906;28;45627;-78
2022/11/28 13:56:06;;;;;;;;;3.00;1.50;;;;;13.53;64.05;100409.81;5005418;28;46984;-77
2022/11/28 13:58:58;;;;;;;;;2.25;1.00;;;;;13.53;64.48;100416.88;5010665;28;45752;-77
2022/11/28 14:01:27;;;;;;;;;3.25;2.00;;;;;13.53;64.19;100417.69;4978055;28;45842;-77
2022/11/28 14:04:01;;;;;;;;;2.00;1.00;;;;;13.57;64.22;100419.09;5006168;28;46722;-78
2022/11/28 14:06:39;;;;;;;;;1.25;1.00;;;;;13.59;64.21;100400.53;4992079;28;47102;-78